createdAt,value
2022-11-11T00:03:20.062Z,97567.03
2022-11-11T00:06:44.316Z,97564.53
2022-11-11T00:10:04.832Z,97569.03
2022-11-11T00:13:25.368Z,97569.22
2022-11-11T00:17:04.820Z,97562.25
2022-11-11T00:20:44.862Z,97560.59
2022-11-11T00:24:25.102Z,97564.19
2022-11-11T00:27:45.374Z,97559.25
2022-11-11T00:31:08.147Z,97554.81
2022-11-11T00:34:28.534Z,97549.09
2022-11-11T00:37:49.121Z,97548.78
2022-11-11T00:41:09.748Z,97550.66
2022-11-11T00:44:29.911Z,97551.59
2022-11-11T00:48:08.793Z,97560.44
2022-11-11T00:51:29.504Z,97553.63
2022-11-11T00:54:49.764Z,97560.53
2022-11-11T00:58:10.044Z,97560.63
2022-11-11T01:01:30.086Z,97564.09
2022-11-11T01:04:50.347Z,97567.00
2022-11-11T01:08:10.533Z,97580.22
2022-11-11T01:11:30.729Z,97571.50
2022-11-11T01:14:51.080Z,97572.56
2022-11-11T01:18:12.952Z,97577.13
2022-11-11T01:21:33.129Z,97567.50
2022-11-11T01:24:53.366Z,97563.25
2022-11-11T01:28:14.604Z,97560.78
2022-11-11T01:31:34.881Z,97573.19
2022-11-11T01:34:55.214Z,97571.69
2022-11-11T01:38:15.706Z,97571.94
2022-11-11T01:41:38.223Z,97576.38
2022-11-11T01:44:58.386Z,97564.94
2022-11-11T01:48:52.777Z,97557.34
2022-11-11T01:52:18.644Z,97566.28
2022-11-11T01:55:39.110Z,97562.09
2022-11-11T01:59:03.123Z,97563.13
2022-11-11T02:02:53.084Z,97556.19
2022-11-11T02:06:13.499Z,97558.16
2022-11-11T02:09:34.323Z,97565.38
2022-11-11T02:13:13.323Z,97572.53
2022-11-11T02:16:33.850Z,97560.34
2022-11-11T02:19:56.796Z,97565.72
2022-11-11T02:23:39.879Z,97568.59
2022-11-11T02:27:02.853Z,97565.19
2022-11-11T02:30:23.060Z,97574.03
2022-11-11T02:33:43.388Z,97566.13
2022-11-11T02:37:06.887Z,97574.97
2022-11-11T02:40:32.976Z,97575.88
2022-11-11T02:43:53.140Z,97587.41
2022-11-11T02:47:13.295Z,97584.91
2022-11-11T02:50:33.363Z,97587.81
2022-11-11T02:53:58.496Z,97589.59
2022-11-11T02:57:19.039Z,97594.94
2022-11-11T03:00:39.181Z,97596.72
2022-11-11T03:03:59.522Z,97601.28
2022-11-11T03:07:19.644Z,97603.19
2022-11-11T03:10:39.860Z,97605.03
2022-11-11T03:14:00.631Z,97612.09
2022-11-11T03:17:39.551Z,97613.03
2022-11-11T03:21:37.265Z,97620.00
2022-11-11T03:25:04.705Z,97626.22
2022-11-11T03:28:25.732Z,97632.41
2022-11-11T03:31:45.979Z,97629.78
2022-11-11T03:35:05.918Z,97630.69
2022-11-11T03:38:26.096Z,97631.66
2022-11-11T03:41:46.409Z,97619.41
2022-11-11T03:45:07.013Z,97620.41
2022-11-11T03:48:30.316Z,97620.47
2022-11-11T03:51:50.524Z,97609.22
2022-11-11T03:55:10.983Z,97623.19
2022-11-11T03:58:31.060Z,97611.88
2022-11-11T04:02:09.504Z,97617.16
2022-11-11T04:05:48.205Z,97602.25
2022-11-11T04:09:46.588Z,97596.97
2022-11-11T04:13:25.628Z,97604.88
2022-11-11T04:16:45.981Z,97603.94
2022-11-11T04:20:25.035Z,97596.91
2022-11-11T04:23:45.241Z,97604.75
2022-11-11T04:27:08.209Z,97604.75
2022-11-11T04:30:28.447Z,97607.19
2022-11-11T04:33:48.460Z,97607.13
2022-11-11T04:37:09.050Z,97599.22
2022-11-11T04:40:47.564Z,97597.03
2022-11-11T04:44:26.039Z,97624.59
2022-11-11T04:48:03.027Z,97628.06
2022-11-11T04:51:42.922Z,97631.56
2022-11-11T04:55:35.185Z,97639.47
2022-11-11T04:59:15.179Z,97647.25
2022-11-11T05:02:54.093Z,97645.41
2022-11-11T05:06:32.648Z,97647.09
2022-11-11T05:09:52.797Z,97639.09
2022-11-11T05:13:31.563Z,97622.56
2022-11-11T05:17:15.379Z,97644.22
2022-11-11T05:20:54.118Z,97647.78
2022-11-11T05:24:43.551Z,97639.19
2022-11-11T05:28:03.696Z,97649.44
2022-11-11T05:31:24.118Z,97656.44
2022-11-11T05:34:44.645Z,97654.53
2022-11-11T05:38:23.060Z,97647.47
2022-11-11T05:41:43.123Z,97651.22
2022-11-11T05:45:03.045Z,97645.69
2022-11-11T05:48:23.283Z,97652.69
2022-11-11T05:51:44.875Z,97652.69
2022-11-11T05:55:05.465Z,97649.19
2022-11-11T05:58:25.559Z,97670.22
2022-11-11T06:01:46.075Z,97673.56
2022-11-11T06:05:08.100Z,97684.13
2022-11-11T06:08:27.955Z,97690.34
2022-11-11T06:11:47.952Z,97696.63
2022-11-11T06:15:08.929Z,97699.19
2022-11-11T06:18:31.351Z,97698.47
2022-11-11T06:21:57.857Z,97704.69
2022-11-11T06:25:36.797Z,97702.91
2022-11-11T06:28:57.595Z,97722.47
2022-11-11T06:32:17.774Z,97729.69
2022-11-11T06:35:40.188Z,97738.69
2022-11-11T06:39:00.274Z,97743.25
2022-11-11T06:42:20.384Z,97741.63
2022-11-11T06:45:40.221Z,97754.66
2022-11-11T06:49:00.277Z,97761.88
2022-11-11T06:52:20.503Z,97756.75
2022-11-11T06:55:41.110Z,97771.16
2022-11-11T06:59:01.319Z,97782.47
2022-11-11T07:02:21.256Z,97782.25
2022-11-11T07:05:42.623Z,97784.66
2022-11-11T07:09:03.028Z,97779.25
2022-11-11T07:12:23.630Z,97778.28
2022-11-11T07:15:44.082Z,97776.97
2022-11-11T07:19:04.237Z,97778.47
2022-11-11T07:22:24.555Z,97772.13
2022-11-11T07:25:45.184Z,97783.22
2022-11-11T07:29:05.135Z,97778.56
2022-11-11T07:32:25.369Z,97772.22
2022-11-11T07:35:45.335Z,97771.03
2022-11-11T07:39:08.740Z,97768.94
2022-11-11T07:42:32.103Z,97777.41
2022-11-11T07:45:52.197Z,97784.47
2022-11-11T07:49:12.322Z,97781.69
2022-11-11T07:52:32.788Z,97779.66
2022-11-11T07:55:52.660Z,97769.78
2022-11-11T07:59:12.644Z,97777.41
2022-11-11T08:02:32.819Z,97782.44
2022-11-11T08:05:53.034Z,97776.06
2022-11-11T08:09:13.195Z,97773.09
2022-11-11T08:12:52.107Z,97786.00
2022-11-11T08:16:13.705Z,97779.47
2022-11-11T08:19:33.881Z,97773.84
2022-11-11T08:23:15.056Z,97781.50
2022-11-11T08:26:35.527Z,97773.28
2022-11-11T08:29:56.087Z,97753.13
2022-11-11T08:36:56.778Z,97773.41
2022-11-11T08:40:16.983Z,97761.63
2022-11-11T08:43:37.849Z,97757.69
2022-11-11T08:46:58.151Z,97744.97
2022-11-11T08:50:18.997Z,97735.75
2022-11-11T08:53:39.468Z,97733.63
2022-11-11T08:56:59.540Z,97731.56
2022-11-11T09:00:20.016Z,97735.56
2022-11-11T09:03:44.004Z,97725.59
2022-11-11T09:07:04.287Z,97741.13
2022-11-11T09:10:24.663Z,97754.97
2022-11-11T09:13:44.579Z,97766.81
2022-11-11T09:17:05.582Z,97771.34
2022-11-11T09:20:25.985Z,97779.34
2022-11-11T09:23:45.937Z,97786.88
2022-11-11T09:27:06.097Z,97782.06
2022-11-11T09:30:28.541Z,97782.56
2022-11-11T09:33:48.491Z,97786.75
2022-11-11T09:37:08.461Z,97773.63
2022-11-11T09:41:02.184Z,97766.09
2022-11-11T09:45:01.336Z,97776.91
2022-11-11T09:48:33.528Z,97775.41
2022-11-11T09:52:26.767Z,97774.88
2022-11-11T09:55:52.424Z,97774.19
2022-11-11T09:59:22.928Z,97778.97
2022-11-11T10:02:59.217Z,97777.44
2022-11-11T10:06:24.381Z,97773.34
2022-11-11T10:09:56.439Z,97768.47
2022-11-11T10:13:22.920Z,97771.50
2022-11-11T10:16:49.099Z,97766.56
2022-11-11T10:20:32.590Z,97758.97
2022-11-11T10:23:58.748Z,97760.19
2022-11-11T10:27:21.695Z,97756.84
2022-11-11T10:30:42.466Z,97750.00
2022-11-11T10:34:11.522Z,97753.97
2022-11-11T10:37:40.177Z,97754.19
2022-11-11T10:41:13.058Z,97752.75
2022-11-11T10:44:36.263Z,97755.56
2022-11-11T10:48:05.811Z,97760.06
2022-11-11T10:51:29.850Z,97737.97
2022-11-11T10:54:57.882Z,97740.88
2022-11-11T10:58:36.607Z,97730.34
2022-11-11T11:02:04.713Z,97737.69
2022-11-11T11:05:33.511Z,97742.38
2022-11-11T11:08:59.395Z,97747.81
2022-11-11T11:12:25.169Z,97747.28
2022-11-11T11:15:55.530Z,97753.78
2022-11-11T11:19:24.517Z,97740.78
2022-11-11T11:22:50.415Z,97741.00
2022-11-11T11:26:12.789Z,97752.94
2022-11-11T11:29:35.871Z,97741.84
2022-11-11T11:33:01.281Z,97743.09
2022-11-11T11:36:21.831Z,97735.50
2022-11-11T11:39:42.469Z,97737.63
2022-11-11T11:43:02.406Z,97735.31
2022-11-11T11:46:37.377Z,97734.00
2022-11-11T11:50:22.348Z,97729.19
2022-11-11T11:53:50.020Z,97725.94
2022-11-11T11:57:34.469Z,97732.78
2022-11-11T12:01:12.806Z,97727.84
2022-11-11T12:04:58.984Z,97713.31
2022-11-11T12:08:43.803Z,97710.94
2022-11-11T12:12:25.625Z,97708.91
2022-11-11T12:15:59.921Z,97700.44
2022-11-11T12:19:41.973Z,97709.53
2022-11-11T12:23:20.781Z,97702.91
2022-11-11T12:26:52.529Z,97708.63
2022-11-11T12:30:27.409Z,97709.88
2022-11-11T12:34:04.108Z,97707.47
2022-11-11T12:37:43.997Z,97710.75
2022-11-11T12:41:13.460Z,97701.41
2022-11-11T12:44:47.877Z,97692.91
2022-11-11T12:48:32.773Z,97696.94
2022-11-11T12:52:01.061Z,97689.41
2022-11-11T12:55:34.866Z,97696.44
2022-11-11T12:59:16.917Z,97702.13
2022-11-11T13:02:58.795Z,97705.78
2022-11-11T13:06:35.046Z,97710.38
2022-11-11T13:10:00.784Z,97710.38
2022-11-11T13:14:06.519Z,97714.75
2022-11-11T13:17:26.612Z,97723.47
2022-11-11T13:21:04.459Z,97720.81
2022-11-11T13:24:25.116Z,97718.25
2022-11-11T13:27:54.009Z,97716.56
2022-11-11T13:31:30.043Z,97709.50
2022-11-11T13:34:52.071Z,97701.50
2022-11-11T13:38:25.410Z,97699.59
2022-11-11T13:41:50.977Z,97701.88
2022-11-11T13:45:26.706Z,97706.03
2022-11-11T13:48:48.937Z,97692.91
2022-11-11T13:52:32.961Z,97703.84
2022-11-11T13:55:54.030Z,97707.34
2022-11-11T13:59:24.681Z,97716.16
2022-11-11T14:02:45.678Z,97707.69
2022-11-11T14:06:14.917Z,97719.31
2022-11-11T14:09:56.043Z,97726.78
2022-11-11T14:13:22.733Z,97723.63
2022-11-11T14:17:00.607Z,97727.25
2022-11-11T14:20:32.507Z,97720.56
2022-11-11T14:23:55.895Z,97737.88
2022-11-11T14:27:18.879Z,97734.81
2022-11-11T14:30:40.478Z,97728.75
2022-11-11T14:34:26.722Z,97735.59
2022-11-11T14:38:01.969Z,97738.22
2022-11-11T14:41:40.554Z,97738.97
2022-11-11T14:45:01.720Z,97747.44
2022-11-11T14:48:57.568Z,97744.25
2022-11-11T14:52:26.599Z,97737.53
2022-11-11T14:55:55.038Z,97727.19
2022-11-11T14:59:25.825Z,97727.53
2022-11-11T15:03:26.812Z,97721.44
2022-11-11T15:07:01.140Z,97734.34
2022-11-11T15:10:32.341Z,97726.91
2022-11-11T15:14:12.612Z,97728.53
2022-11-11T15:17:42.128Z,97725.56
2022-11-11T15:21:15.195Z,97739.50
2022-11-11T15:25:11.454Z,97745.56
2022-11-11T15:29:05.265Z,97744.09
2022-11-11T15:32:53.605Z,97745.69
2022-11-11T15:36:32.081Z,97744.41
2022-11-11T15:39:55.810Z,97745.78
2022-11-11T15:43:19.007Z,97748.00
2022-11-11T15:46:43.151Z,97754.50
2022-11-11T15:50:04.257Z,97747.78
2022-11-11T15:53:28.942Z,97745.66
2022-11-11T15:56:49.952Z,97746.25
2022-11-11T16:00:31.813Z,97753.03
2022-11-11T16:03:52.737Z,97742.06
2022-11-11T16:07:23.162Z,97758.22
2022-11-11T16:10:43.761Z,97760.44
2022-11-11T16:14:08.173Z,97763.47
2022-11-11T16:17:41.988Z,97762.94
2022-11-11T16:21:08.694Z,97771.31
2022-11-11T16:24:33.623Z,97771.63
2022-11-11T16:27:54.113Z,97776.06
2022-11-11T16:31:26.924Z,97773.50
2022-11-11T16:34:48.157Z,97769.13
2022-11-11T16:38:08.656Z,97771.97
2022-11-11T16:41:32.064Z,97768.50
2022-11-11T16:45:02.215Z,97772.84
2022-11-11T16:48:31.800Z,97765.94
2022-11-11T16:51:52.320Z,97767.75
2022-11-11T16:55:37.690Z,97769.44
2022-11-11T16:59:11.551Z,97770.31
2022-11-11T17:02:31.947Z,97769.53
2022-11-11T17:06:01.217Z,97765.19
2022-11-11T17:09:35.850Z,97772.28
2022-11-11T17:12:55.730Z,97767.28
2022-11-11T17:16:15.923Z,97767.38
2022-11-11T17:19:36.499Z,97773.44
2022-11-11T17:22:57.732Z,97767.38
2022-11-11T17:26:17.878Z,97766.63
2022-11-11T17:29:39.201Z,97769.56
2022-11-11T17:32:59.823Z,97758.19
2022-11-11T17:36:19.855Z,97761.88
2022-11-11T17:39:43.193Z,97764.66
2022-11-11T17:43:03.362Z,97761.88
2022-11-11T17:46:23.749Z,97762.84
2022-11-11T17:49:56.036Z,97751.88
2022-11-11T17:53:17.497Z,97759.63
2022-11-11T17:56:38.924Z,97767.78
2022-11-11T17:59:58.897Z,97761.72
2022-11-11T18:03:19.047Z,97742.78
2022-11-11T18:06:39.043Z,97756.72
2022-11-11T18:09:59.555Z,97743.53
2022-11-11T18:13:19.584Z,97740.19
2022-11-11T18:16:39.995Z,97742.13
2022-11-11T18:20:00.163Z,97748.66
2022-11-11T18:23:20.300Z,97748.00
2022-11-11T18:26:40.283Z,97763.06
2022-11-11T18:30:00.548Z,97753.84
2022-11-11T18:33:20.685Z,97760.81
2022-11-11T18:36:41.072Z,97759.25
2022-11-11T18:40:01.252Z,97757.75
2022-11-11T18:43:21.050Z,97764.94
2022-11-11T18:46:41.001Z,97756.19
2022-11-11T18:50:01.384Z,97754.53
2022-11-11T18:53:21.765Z,97753.94
2022-11-11T18:56:42.094Z,97762.84
2022-11-11T19:00:03.156Z,97751.66
2022-11-11T19:03:23.466Z,97751.88
2022-11-11T19:06:44.000Z,97752.03
2022-11-11T19:10:04.330Z,97751.28
2022-11-11T19:13:25.068Z,97750.53
2022-11-11T19:16:45.513Z,97747.13
2022-11-11T19:20:06.034Z,97750.72
2022-11-11T19:23:26.362Z,97758.84
2022-11-11T19:26:49.798Z,97766.72
2022-11-11T19:30:10.705Z,97759.81
2022-11-11T19:33:33.429Z,97766.72
2022-11-11T19:36:53.579Z,97773.91
2022-11-11T19:40:13.767Z,97761.63
2022-11-11T19:43:34.653Z,97774.97
2022-11-11T19:46:54.630Z,97772.38
2022-11-11T19:50:15.245Z,97779.56
2022-11-11T19:53:36.081Z,97785.81
2022-11-11T19:56:56.473Z,97778.91
2022-11-11T20:00:16.973Z,97771.91
2022-11-11T20:03:37.985Z,97782.50
2022-11-11T20:06:58.077Z,97787.03
2022-11-11T20:10:18.438Z,97782.88
2022-11-11T20:13:42.610Z,97765.81
2022-11-11T20:17:03.193Z,97780.59
2022-11-11T20:20:24.259Z,97793.94
2022-11-11T20:23:44.603Z,97785.22
2022-11-11T20:27:04.865Z,97773.03
2022-11-11T20:30:25.083Z,97779.91
2022-11-11T20:33:45.365Z,97780.13
2022-11-11T20:37:05.475Z,97785.50
2022-11-11T20:40:45.792Z,97781.91
2022-11-11T20:44:05.997Z,97777.56
2022-11-11T20:47:28.978Z,97764.53
2022-11-11T20:51:01.640Z,97779.91
2022-11-11T20:54:21.618Z,97775.47
2022-11-11T20:57:41.871Z,97778.03
2022-11-11T21:01:13.987Z,97759.66
2022-11-11T21:04:34.150Z,97759.41
2022-11-11T21:07:54.302Z,97759.19
2022-11-11T21:11:16.848Z,97752.09
2022-11-11T21:14:37.125Z,97762.63
2022-11-11T21:17:57.607Z,97772.38
2022-11-11T21:21:22.261Z,97769.72
2022-11-11T21:24:42.568Z,97772.38
2022-11-11T21:28:06.777Z,97772.44
2022-11-11T21:31:32.418Z,97767.06
2022-11-11T21:34:52.436Z,97766.41
2022-11-11T21:38:12.644Z,97774.38
2022-11-11T21:41:38.013Z,97772.66
2022-11-11T21:44:57.960Z,97761.28
2022-11-11T21:48:18.001Z,97761.19
2022-11-11T21:51:37.983Z,97763.00
2022-11-11T21:54:58.199Z,97751.91
2022-11-11T21:58:18.702Z,97756.84
2022-11-11T22:01:41.008Z,97751.69
2022-11-11T22:05:01.792Z,97751.91
2022-11-11T22:08:21.685Z,97763.44
2022-11-11T22:11:41.689Z,97767.03
2022-11-11T22:15:01.929Z,97766.19
2022-11-11T22:18:22.010Z,97775.06
2022-11-11T22:21:43.825Z,97782.34
2022-11-11T22:25:04.424Z,97780.72
2022-11-11T22:28:24.755Z,97775.59
2022-11-11T22:31:45.142Z,97758.28
2022-11-11T22:35:05.576Z,97763.56
2022-11-11T22:38:26.311Z,97768.88
2022-11-11T22:41:46.681Z,97779.47
2022-11-11T22:45:07.352Z,97774.25
2022-11-11T22:48:28.048Z,97769.22
2022-11-11T22:51:48.474Z,97761.47
2022-11-11T22:55:08.907Z,97761.47
2022-11-11T22:58:30.344Z,97757.00
2022-11-11T23:01:50.752Z,97759.56
2022-11-11T23:05:10.773Z,97757.00
2022-11-11T23:08:31.611Z,97756.06
2022-11-11T23:11:51.783Z,97743.66
2022-11-11T23:15:11.926Z,97745.38
2022-11-11T23:18:32.377Z,97734.69
2022-11-11T23:21:52.659Z,97737.53
2022-11-11T23:25:12.825Z,97733.16
2022-11-11T23:28:33.319Z,97736.78
2022-11-11T23:31:53.524Z,97738.38
2022-11-11T23:35:13.956Z,97733.06
2022-11-11T23:38:35.014Z,97729.50
2022-11-11T23:41:55.286Z,97734.13
2022-11-11T23:45:15.486Z,97739.50
2022-11-11T23:48:36.126Z,97732.50
2022-11-11T23:51:56.023Z,97740.44
2022-11-11T23:55:16.161Z,97729.16
2022-11-11T23:58:36.146Z,97737.81
